メインページ
METAR-TAF:

METAR-TAF

空港 :

リシンガ, モザンビーク

緯度: 13-18S, 経度: 035-14E, 海抜: 1364m

現時点の気象観測

当レポートは3時間57分前の13:00(UTC)に作成
南東の風 8kt、東/南東からの間で変化する
気温 24°C
湿度 47%
気圧 1022 hPa
視程10km以上
高度1600ftの千切れ雲あり
高度8000ftの千切れ雲あり

METAR: FQLC 161300Z 14008KT 110V180 9999 BKN016 BKN080 24/12 Q1022

時間: 18:57 (16:57 UTC)

予報

当レポートは6時間57分前の10:00(UTC)に作成
予報は16日の 12時(UTC)から 17日の 12時(UTC)まで有効
南東の風 10kt
視程10km以上
高度2000ftの千切れ雲あり
16日の 19時(UTC)から 16日の 21時(UTC)まで徐々に
変向風 4kt
17日の 07時(UTC)から 17日の 09時(UTC)まで徐々に
東/南東の風 8kt
確率 30% :
17日の 09時(UTC)から 17日の 12時(UTC)まで一時的に
視程: 5000m
高度1200ftの雲は散在している
小雨, 霧雨,

TAF: FQLC 161000Z 1612/1712 14010KT 9999 BKN020 TX23/1613Z TN13/1702Z BECMG 1619/1621 VRB04KT BECMG 1707/1709 11008KT PROB30 TEMPO 1709/1712 5000 -RADZ SCT012

4,000以上の空港の気象観測と天気予報(METAR報とTAF報)

利用可能な観測所は地図上に黄色い丸と赤い丸で示す。

丸の上にカーソルを重ねると観測所名を参照できる。

次にクリックすると気象観測と天気予報を参照できる。

マップの切り替え:黒色「×」印の緑ボタンをクリックして拡大、「-」印の緑ボタンをクリックして縮小、緑色の三角印をクリックして隣りの地図に切り替え


METAR-TAF: